createdAt,value
2024-05-09T00:02:14.716Z,4.63
2024-05-09T00:05:42.866Z,4.56
2024-05-09T00:09:09.793Z,4.51
2024-05-09T00:12:36.373Z,4.44
2024-05-09T00:16:15.698Z,4.41
2024-05-09T00:19:43.676Z,4.37
2024-05-09T00:23:12.397Z,4.34
2024-05-09T00:26:38.306Z,4.30
2024-05-09T00:30:07.055Z,4.27
2024-05-09T00:33:33.749Z,4.24
2024-05-09T00:37:00.864Z,4.23
2024-05-09T00:40:37.712Z,4.21
2024-05-09T00:44:08.497Z,4.18
2024-05-09T00:47:35.128Z,4.11
2024-05-09T00:51:02.691Z,4.02
2024-05-09T00:54:29.395Z,3.93
2024-05-09T00:57:56.588Z,3.85
2024-05-09T01:01:25.048Z,3.74
2024-05-09T01:04:53.580Z,3.63
2024-05-09T01:08:20.554Z,3.56
2024-05-09T01:11:54.391Z,3.48
2024-05-09T01:15:21.070Z,3.37
2024-05-09T01:18:47.596Z,3.26
2024-05-09T01:22:14.340Z,3.14
2024-05-09T01:25:40.905Z,3.01
2024-05-09T01:29:20.080Z,2.91
2024-05-09T02:04:37.857Z,1.53
2024-05-09T02:08:04.506Z,1.40
2024-05-09T02:11:31.243Z,1.34
2024-05-09T02:14:58.205Z,1.30
2024-05-09T02:18:24.669Z,1.33
2024-05-09T02:21:51.157Z,1.44
2024-05-09T02:25:18.023Z,1.50
2024-05-09T02:28:44.451Z,1.55
2024-05-09T02:32:11.006Z,1.61
2024-05-09T02:35:37.605Z,1.67
2024-05-09T02:39:04.290Z,1.70
2024-05-09T02:42:31.326Z,1.70
2024-05-09T02:45:57.814Z,1.66
2024-05-09T02:49:24.431Z,1.65
2024-05-09T02:52:51.316Z,1.67
2024-05-09T02:56:17.837Z,1.70
2024-05-09T02:59:45.177Z,1.75
2024-05-09T03:03:14.455Z,1.81
2024-05-09T03:06:44.092Z,1.88
2024-05-09T03:10:18.338Z,1.92
2024-05-09T03:13:51.514Z,1.94
2024-05-09T03:17:18.615Z,1.90
2024-05-09T03:20:45.348Z,1.83
2024-05-09T03:24:13.053Z,1.75
2024-05-09T03:27:41.027Z,1.68
2024-05-09T03:31:10.381Z,1.62
2024-05-09T03:34:40.695Z,1.61
2024-05-09T03:38:07.259Z,1.62
2024-05-09T03:41:33.917Z,1.82
2024-05-09T03:45:00.884Z,2.20
2024-05-09T03:48:27.823Z,2.58
2024-05-09T03:51:54.293Z,2.98
2024-05-09T03:55:20.678Z,3.35
2024-05-09T03:58:47.490Z,3.68
2024-05-09T04:02:14.155Z,3.97
2024-05-09T04:05:42.333Z,4.31
2024-05-09T04:09:09.975Z,4.58
2024-05-09T04:12:36.575Z,4.80
2024-05-09T04:16:03.048Z,4.96
2024-05-09T04:19:30.048Z,5.15
2024-05-09T04:22:56.520Z,5.38
2024-05-09T04:26:23.109Z,5.69
2024-05-09T04:29:49.620Z,5.94
2024-05-09T04:33:16.475Z,6.25
2024-05-09T04:36:44.666Z,6.49
2024-05-09T04:40:24.000Z,6.67
2024-05-09T04:43:57.796Z,6.82
2024-05-09T04:47:24.419Z,6.95
2024-05-09T04:50:51.289Z,7.12
2024-05-09T04:54:26.267Z,7.33
2024-05-09T04:58:01.564Z,7.51
